sensor_id;sensor_type;location;lat;lon;timestamp;pressure;altitude;pressure_sealevel;temperature;humidity
49583;BME280;36329;48.816;44.624;2023-05-19T00:02:59;101074;;;17.4;43.6
49583;BME280;36329;48.816;44.624;2023-05-19T00:06:01;101074;;;17.4;44
49583;BME280;36329;48.816;44.624;2023-05-19T00:09:05;101077;;;17.3;43.5
49583;BME280;36329;48.816;44.624;2023-05-19T00:12:08;101071;;;17.1;43.4
49583;BME280;36329;48.816;44.624;2023-05-19T00:15:11;101072;;;17.1;44.8
49583;BME280;36329;48.816;44.624;2023-05-19T00:18:13;101076;;;17.1;43.3
49583;BME280;36329;48.816;44.624;2023-05-19T00:21:15;101076;;;17.1;42.8
49583;BME280;36329;48.816;44.624;2023-05-19T00:24:17;101076;;;17.1;43.8
49583;BME280;36329;48.816;44.624;2023-05-19T00:27:19;101074;;;17;42.6
49583;BME280;36329;48.816;44.624;2023-05-19T00:30:21;101077;;;17;42.6
49583;BME280;36329;48.816;44.624;2023-05-19T00:33:23;101079;;;17;42.5
49583;BME280;36329;48.816;44.624;2023-05-19T00:36:24;101080;;;17.1;42.2
49583;BME280;36329;48.816;44.624;2023-05-19T00:39:27;101085;;;16.9;42.3
49583;BME280;36329;48.816;44.624;2023-05-19T00:42:28;101090;;;16.9;42.5
49583;BME280;36329;48.816;44.624;2023-05-19T00:45:30;101094;;;16.9;42.1
49583;BME280;36329;48.816;44.624;2023-05-19T00:48:32;101089;;;16.8;42.7
49583;BME280;36329;48.816;44.624;2023-05-19T00:51:34;101093;;;16.8;42.5
49583;BME280;36329;48.816;44.624;2023-05-19T00:54:36;101097;;;16.7;43
49583;BME280;36329;48.816;44.624;2023-05-19T00:57:38;101097;;;16.7;43.5
49583;BME280;36329;48.816;44.624;2023-05-19T01:00:40;101098;;;16.6;43.4
49583;BME280;36329;48.816;44.624;2023-05-19T01:03:43;101098;;;16.6;42.8
49583;BME280;36329;48.816;44.624;2023-05-19T01:06:45;101095;;;16.7;43.1
49583;BME280;36329;48.816;44.624;2023-05-19T01:09:47;101095;;;16.8;43.1
49583;BME280;36329;48.816;44.624;2023-05-19T01:12:49;101091;;;16.6;42.7
49583;BME280;36329;48.816;44.624;2023-05-19T01:15:57;101094;;;16.5;43.3
49583;BME280;36329;48.816;44.624;2023-05-19T01:19:10;101089;;;16.4;43.5
49583;BME280;36329;48.816;44.624;2023-05-19T01:22:25;101094;;;16.4;43.5
49583;BME280;36329;48.816;44.624;2023-05-19T01:25:50;101102;;;16.4;43.6
49583;BME280;36329;48.816;44.624;2023-05-19T01:29:16;101109;;;16.4;43.7
49583;BME280;36329;48.816;44.624;2023-05-19T01:32:28;101110;;;16.5;44.5
49583;BME280;36329;48.816;44.624;2023-05-19T01:35:31;101107;;;16.5;43.4
49583;BME280;36329;48.816;44.624;2023-05-19T01:38:37;101115;;;16.6;44.3
49583;BME280;36329;48.816;44.624;2023-05-19T01:41:40;101117;;;16.5;42.8
49583;BME280;36329;48.816;44.624;2023-05-19T01:44:43;101118;;;16.4;44.8
49583;BME280;36329;48.816;44.624;2023-05-19T01:47:49;101121;;;16.6;43.7
49583;BME280;36329;48.816;44.624;2023-05-19T01:50:52;101119;;;16.6;42.9
49583;BME280;36329;48.816;44.624;2023-05-19T01:53:54;101115;;;16.7;43.2
49583;BME280;36329;48.816;44.624;2023-05-19T01:57:04;101110;;;16.8;43.2
49583;BME280;36329;48.816;44.624;2023-05-19T02:00:15;101113;;;16.8;43
49583;BME280;36329;48.816;44.624;2023-05-19T02:03:27;101117;;;16.6;41.9
49583;BME280;36329;48.816;44.624;2023-05-19T02:06:40;101123;;;16.9;42.6
49583;BME280;36329;48.816;44.624;2023-05-19T02:09:50;101126;;;17.1;42.6
49583;BME280;36329;48.816;44.624;2023-05-19T02:12:57;101131;;;17.2;43.4
49583;BME280;36329;48.816;44.624;2023-05-19T02:16:04;101132;;;17.1;43.6
49583;BME280;36329;48.816;44.624;2023-05-19T02:19:18;101127;;;17.3;43.9
49583;BME280;36329;48.816;44.624;2023-05-19T02:22:20;101132;;;17.3;42.9
49583;BME280;36329;48.816;44.624;2023-05-19T02:25:22;101140;;;17.2;43.3
49583;BME280;36329;48.816;44.624;2023-05-19T02:28:24;101141;;;17;43
49583;BME280;36329;48.816;44.624;2023-05-19T02:31:26;101144;;;17.3;42.5
49583;BME280;36329;48.816;44.624;2023-05-19T02:34:28;101133;;;17.4;42.6
49583;BME280;36329;48.816;44.624;2023-05-19T02:37:30;101130;;;17.4;42.4
49583;BME280;36329;48.816;44.624;2023-05-19T02:40:32;101137;;;17.3;42.1
49583;BME280;36329;48.816;44.624;2023-05-19T02:43:34;101142;;;17.3;42.9
49583;BME280;36329;48.816;44.624;2023-05-19T02:46:35;101143;;;17.5;41.6
49583;BME280;36329;48.816;44.624;2023-05-19T02:49:37;101143;;;17.5;41.6
49583;BME280;36329;48.816;44.624;2023-05-19T02:52:39;101143;;;17.5;41.6
49583;BME280;36329;48.816;44.624;2023-05-19T02:55:41;101142;;;17.6;42.1
49583;BME280;36329;48.816;44.624;2023-05-19T02:58:43;101142;;;17.6;42.6
49583;BME280;36329;48.816;44.624;2023-05-19T03:01:45;101145;;;17.8;41.2
49583;BME280;36329;48.816;44.624;2023-05-19T03:04:47;101143;;;17.8;41.6
49583;BME280;36329;48.816;44.624;2023-05-19T03:07:48;101148;;;17.7;42.5
49583;BME280;36329;48.816;44.624;2023-05-19T03:10:50;101147;;;18;42.2
49583;BME280;36329;48.816;44.624;2023-05-19T03:13:52;101150;;;17.9;41.7
49583;BME280;36329;48.816;44.624;2023-05-19T03:16:54;101148;;;18;41.2
49583;BME280;36329;48.816;44.624;2023-05-19T03:19:56;101146;;;18;42
49583;BME280;36329;48.816;44.624;2023-05-19T03:22:59;101142;;;18;42.8
49583;BME280;36329;48.816;44.624;2023-05-19T03:26:01;101145;;;18;41.1
49583;BME280;36329;48.816;44.624;2023-05-19T03:29:03;101132;;;18.1;42.7
49583;BME280;36329;48.816;44.624;2023-05-19T03:32:05;101144;;;18.2;42.1
49583;BME280;36329;48.816;44.624;2023-05-19T03:35:08;101143;;;18.3;42
49583;BME280;36329;48.816;44.624;2023-05-19T03:38:10;101150;;;18.4;42.3
49583;BME280;36329;48.816;44.624;2023-05-19T03:41:12;101150;;;18.5;41.9
49583;BME280;36329;48.816;44.624;2023-05-19T03:44:14;101156;;;18.5;42.6
49583;BME280;36329;48.816;44.624;2023-05-19T03:47:15;101156;;;18.7;41.4
49583;BME280;36329;48.816;44.624;2023-05-19T03:50:17;101153;;;18.8;40
49583;BME280;36329;48.816;44.624;2023-05-19T03:53:19;101160;;;18.5;37.5
49583;BME280;36329;48.816;44.624;2023-05-19T03:56:21;101162;;;18.8;37.8
49583;BME280;36329;48.816;44.624;2023-05-19T03:59:23;101163;;;19;39.8
49583;BME280;36329;48.816;44.624;2023-05-19T04:02:26;101164;;;19.1;37.4
49583;BME280;36329;48.816;44.624;2023-05-19T04:05:27;101163;;;19.3;37.3
49583;BME280;36329;48.816;44.624;2023-05-19T04:08:29;101168;;;19.3;37.4
49583;BME280;36329;48.816;44.624;2023-05-19T04:11:31;101168;;;19.5;38.5
49583;BME280;36329;48.816;44.624;2023-05-19T04:14:33;101175;;;19.5;36.5
49583;BME280;36329;48.816;44.624;2023-05-19T04:17:35;101179;;;19.5;36.6
49583;BME280;36329;48.816;44.624;2023-05-19T04:20:37;101181;;;19.4;35.1
49583;BME280;36329;48.816;44.624;2023-05-19T04:23:39;101182;;;19.3;35.7
49583;BME280;36329;48.816;44.624;2023-05-19T04:26:41;101183;;;19.5;37.2
49583;BME280;36329;48.816;44.624;2023-05-19T04:29:44;101186;;;19.5;34.2
49583;BME280;36329;48.816;44.624;2023-05-19T04:32:46;101199;;;19.5;34.6
49583;BME280;36329;48.816;44.624;2023-05-19T04:35:48;101195;;;19.6;35.5
49583;BME280;36329;48.816;44.624;2023-05-19T04:38:50;101196;;;19.6;35.3
49583;BME280;36329;48.816;44.624;2023-05-19T04:41:52;101190;;;19.6;34.3
49583;BME280;36329;48.816;44.624;2023-05-19T04:44:54;101195;;;19.8;35
49583;BME280;36329;48.816;44.624;2023-05-19T04:47:56;101193;;;20.1;36
49583;BME280;36329;48.816;44.624;2023-05-19T04:50:57;101191;;;20.2;35.9
49583;BME280;36329;48.816;44.624;2023-05-19T04:53:59;101202;;;20.1;34.2
49583;BME280;36329;48.816;44.624;2023-05-19T04:57:02;101191;;;20.3;33.9
49583;BME280;36329;48.816;44.624;2023-05-19T05:00:05;101190;;;20.4;36.8
49583;BME280;36329;48.816;44.624;2023-05-19T05:03:08;101188;;;20.6;33.7
49583;BME280;36329;48.816;44.624;2023-05-19T05:06:10;101189;;;20.7;35.4
49583;BME280;36329;48.816;44.624;2023-05-19T05:09:12;101187;;;20.6;34.8
49583;BME280;36329;48.816;44.624;2023-05-19T05:12:17;101187;;;20.5;35.9
49583;BME280;36329;48.816;44.624;2023-05-19T05:15:20;101188;;;20.5;36
49583;BME280;36329;48.816;44.624;2023-05-19T05:18:22;101189;;;20.7;36
49583;BME280;36329;48.816;44.624;2023-05-19T05:21:24;101186;;;21;36
49583;BME280;36329;48.816;44.624;2023-05-19T05:24:27;101189;;;21.2;34.5
49583;BME280;36329;48.816;44.624;2023-05-19T05:27:40;101187;;;21.3;34.2
49583;BME280;36329;48.816;44.624;2023-05-19T05:30:52;101191;;;21.4;36.5
49583;BME280;36329;48.816;44.624;2023-05-19T05:34:00;101188;;;21.5;34.3
49583;BME280;36329;48.816;44.624;2023-05-19T05:37:10;101191;;;21.7;34.5
49583;BME280;36329;48.816;44.624;2023-05-19T05:40:16;101191;;;21.8;34.1
49583;BME280;36329;48.816;44.624;2023-05-19T05:43:38;101196;;;21.9;36
49583;BME280;36329;48.816;44.624;2023-05-19T05:46:41;101195;;;22.2;33.4
49583;BME280;36329;48.816;44.624;2023-05-19T05:49:44;101186;;;22.4;33
49583;BME280;36329;48.816;44.624;2023-05-19T05:53:02;101200;;;22.6;34.6
49583;BME280;36329;48.816;44.624;2023-05-19T05:56:06;101196;;;22.9;33.2
49583;BME280;36329;48.816;44.624;2023-05-19T05:59:09;101199;;;23;31.8
49583;BME280;36329;48.816;44.624;2023-05-19T06:02:23;101200;;;23.2;31.6
49583;BME280;36329;48.816;44.624;2023-05-19T06:05:26;101197;;;23.4;31
49583;BME280;36329;48.816;44.624;2023-05-19T06:08:40;101191;;;23.5;30.7
49583;BME280;36329;48.816;44.624;2023-05-19T06:11:52;101203;;;23.6;31.2
49583;BME280;36329;48.816;44.624;2023-05-19T06:14:57;101199;;;23.9;30.6
49583;BME280;36329;48.816;44.624;2023-05-19T06:18:00;101207;;;24.3;30.8
49583;BME280;36329;48.816;44.624;2023-05-19T06:21:18;101203;;;24.4;29.9
49583;BME280;36329;48.816;44.624;2023-05-19T06:24:36;101201;;;24.4;29.2
49583;BME280;36329;48.816;44.624;2023-05-19T06:27:44;101204;;;24.5;28.1
49583;BME280;36329;48.816;44.624;2023-05-19T06:30:47;101207;;;24.6;28.9
49583;BME280;36329;48.816;44.624;2023-05-19T06:34:02;101207;;;24.7;29.7
49583;BME280;36329;48.816;44.624;2023-05-19T06:37:11;101202;;;24.9;27.8
49583;BME280;36329;48.816;44.624;2023-05-19T06:40:14;101207;;;24.9;28.5
49583;BME280;36329;48.816;44.624;2023-05-19T06:43:18;101212;;;25.2;29.4
49583;BME280;36329;48.816;44.624;2023-05-19T06:46:25;101213;;;25.6;28.9
49583;BME280;36329;48.816;44.624;2023-05-19T06:49:28;101217;;;25.8;28.8
49583;BME280;36329;48.816;44.624;2023-05-19T06:52:36;101215;;;25.8;29.3
49583;BME280;36329;48.816;44.624;2023-05-19T06:55:46;101217;;;25.9;28.4
49583;BME280;36329;48.816;44.624;2023-05-19T06:59:10;101218;;;25.8;27.8
49583;BME280;36329;48.816;44.624;2023-05-19T07:02:28;101219;;;25.8;27.8
49583;BME280;36329;48.816;44.624;2023-05-19T07:05:49;101221;;;25.7;28.4
49583;BME280;36329;48.816;44.624;2023-05-19T07:08:51;101219;;;26;29
49583;BME280;36329;48.816;44.624;2023-05-19T07:11:53;101223;;;26.1;29
49583;BME280;36329;48.816;44.624;2023-05-19T07:14:55;101221;;;26.4;27.3
49583;BME280;36329;48.816;44.624;2023-05-19T07:17:57;101222;;;26.2;26.1
49583;BME280;36329;48.816;44.624;2023-05-19T07:20:59;101224;;;26.4;26.9
49583;BME280;36329;48.816;44.624;2023-05-19T07:24:01;101229;;;26.4;25.2
49583;BME280;36329;48.816;44.624;2023-05-19T07:27:03;101221;;;26.6;23.2
49583;BME280;36329;48.816;44.624;2023-05-19T07:30:07;101222;;;26.6;22.6
49583;BME280;36329;48.816;44.624;2023-05-19T07:33:09;101222;;;27;21.9
49583;BME280;36329;48.816;44.624;2023-05-19T07:36:12;101221;;;27.6;20.9
49583;BME280;36329;48.816;44.624;2023-05-19T07:39:13;101224;;;28;20.6
49583;BME280;36329;48.816;44.624;2023-05-19T07:42:15;101225;;;27.5;18.9
49583;BME280;36329;48.816;44.624;2023-05-19T07:45:17;101227;;;27.7;19.5
49583;BME280;36329;48.816;44.624;2023-05-19T07:48:19;101225;;;27.9;19.1
49583;BME280;36329;48.816;44.624;2023-05-19T07:51:21;101232;;;28.1;19.9
49583;BME280;36329;48.816;44.624;2023-05-19T07:54:23;101238;;;28;18.6
49583;BME280;36329;48.816;44.624;2023-05-19T07:57:25;101234;;;27.9;18.1
49583;BME280;36329;48.816;44.624;2023-05-19T08:00:27;101228;;;28.2;18.3
49583;BME280;36329;48.816;44.624;2023-05-19T08:03:29;101231;;;28.7;19.5
49583;BME280;36329;48.816;44.624;2023-05-19T08:06:30;101228;;;28.9;16.1
49583;BME280;36329;48.816;44.624;2023-05-19T08:09:33;101222;;;28.7;14.9
49583;BME280;36329;48.816;44.624;2023-05-19T08:12:35;101225;;;28.5;16.3
49583;BME280;36329;48.816;44.624;2023-05-19T08:15:38;101225;;;28.6;17.5
49583;BME280;36329;48.816;44.624;2023-05-19T08:18:40;101223;;;28.8;15.9
49583;BME280;36329;48.816;44.624;2023-05-19T08:21:42;101222;;;28.8;15.5
49583;BME280;36329;48.816;44.624;2023-05-19T08:24:44;101214;;;29;15.8
49583;BME280;36329;48.816;44.624;2023-05-19T08:27:46;101216;;;28.9;16.1
49583;BME280;36329;48.816;44.624;2023-05-19T08:30:49;101209;;;29.1;14.6
49583;BME280;36329;48.816;44.624;2023-05-19T08:33:51;101217;;;29.5;15.7
49583;BME280;36329;48.816;44.624;2023-05-19T08:36:53;101215;;;29.2;15.2
49583;BME280;36329;48.816;44.624;2023-05-19T08:39:55;101211;;;29.7;16.2
49583;BME280;36329;48.816;44.624;2023-05-19T08:42:57;101215;;;30.1;15
49583;BME280;36329;48.816;44.624;2023-05-19T08:45:59;101212;;;29.9;15.3
49583;BME280;36329;48.816;44.624;2023-05-19T08:49:06;101218;;;29.9;16.6
49583;BME280;36329;48.816;44.624;2023-05-19T08:52:18;101217;;;30;15
49583;BME280;36329;48.816;44.624;2023-05-19T08:55:30;101219;;;30.1;15.1
49583;BME280;36329;48.816;44.624;2023-05-19T08:58:33;101210;;;30.3;14.9
49583;BME280;36329;48.816;44.624;2023-05-19T09:01:36;101210;;;30.3;14.3
49583;BME280;36329;48.816;44.624;2023-05-19T09:04:38;101213;;;30;14.1
49583;BME280;36329;48.816;44.624;2023-05-19T09:07:42;101213;;;29.9;14.5
49583;BME280;36329;48.816;44.624;2023-05-19T09:10:44;101209;;;29.6;13.7
49583;BME280;36329;48.816;44.624;2023-05-19T09:13:46;101213;;;29.9;15
49583;BME280;36329;48.816;44.624;2023-05-19T09:16:48;101212;;;30.2;14.9
49583;BME280;36329;48.816;44.624;2023-05-19T09:19:50;101203;;;30.3;15.2
49583;BME280;36329;48.816;44.624;2023-05-19T09:22:52;101203;;;30.2;15.3
49583;BME280;36329;48.816;44.624;2023-05-19T09:25:54;101200;;;30;14.4
49583;BME280;36329;48.816;44.624;2023-05-19T09:28:57;101199;;;30;15.4
49583;BME280;36329;48.816;44.624;2023-05-19T09:31:59;101203;;;30;14.9
49583;BME280;36329;48.816;44.624;2023-05-19T09:35:01;101197;;;29;15.1
49583;BME280;36329;48.816;44.624;2023-05-19T09:38:05;101198;;;29.3;15
49583;BME280;36329;48.816;44.624;2023-05-19T09:41:07;101196;;;29.6;15.1
49583;BME280;36329;48.816;44.624;2023-05-19T09:44:12;101199;;;29.7;15.4
49583;BME280;36329;48.816;44.624;2023-05-19T09:47:14;101196;;;29.8;15.5
49583;BME280;36329;48.816;44.624;2023-05-19T09:50:16;101203;;;29.5;14.6
49583;BME280;36329;48.816;44.624;2023-05-19T09:53:18;101202;;;28.9;14.5
49583;BME280;36329;48.816;44.624;2023-05-19T09:56:20;101205;;;29.2;16.1
49583;BME280;36329;48.816;44.624;2023-05-19T09:59:24;101204;;;29;15.7
49583;BME280;36329;48.816;44.624;2023-05-19T10:02:27;101203;;;29;15.6
49583;BME280;36329;48.816;44.624;2023-05-19T10:05:30;101195;;;29.4;16.1
49583;BME280;36329;48.816;44.624;2023-05-19T10:08:32;101188;;;29;15.6
49583;BME280;36329;48.816;44.624;2023-05-19T10:11:34;101193;;;28.9;16.4
49583;BME280;36329;48.816;44.624;2023-05-19T10:14:36;101190;;;29.1;16.4
49583;BME280;36329;48.816;44.624;2023-05-19T10:17:39;101190;;;29.1;16
49583;BME280;36329;48.816;44.624;2023-05-19T10:20:42;101191;;;29.1;16.3
49583;BME280;36329;48.816;44.624;2023-05-19T10:23:44;101191;;;28.9;16.2
49583;BME280;36329;48.816;44.624;2023-05-19T10:26:49;101199;;;29;15.9
49583;BME280;36329;48.816;44.624;2023-05-19T10:29:53;101197;;;29;16.6
49583;BME280;36329;48.816;44.624;2023-05-19T10:32:58;101203;;;28.6;15.7
49583;BME280;36329;48.816;44.624;2023-05-19T10:36:12;101203;;;28.8;16.4
49583;BME280;36329;48.816;44.624;2023-05-19T10:39:20;101199;;;28.5;16.6
49583;BME280;36329;48.816;44.624;2023-05-19T10:42:28;101193;;;28.5;16.3
49583;BME280;36329;48.816;44.624;2023-05-19T10:45:40;101189;;;28.5;16.2
49583;BME280;36329;48.816;44.624;2023-05-19T10:48:44;101190;;;28.3;15.9
49583;BME280;36329;48.816;44.624;2023-05-19T10:51:47;101182;;;28.1;16.3
49583;BME280;36329;48.816;44.624;2023-05-19T10:54:49;101179;;;28.1;15.7
49583;BME280;36329;48.816;44.624;2023-05-19T10:57:53;101178;;;27.9;16.7
49583;BME280;36329;48.816;44.624;2023-05-19T11:00:59;101180;;;27.8;16.6
49583;BME280;36329;48.816;44.624;2023-05-19T11:04:04;101176;;;27.9;16.2
49583;BME280;36329;48.816;44.624;2023-05-19T11:07:08;101172;;;27.7;16.4
49583;BME280;36329;48.816;44.624;2023-05-19T11:10:10;101167;;;27.7;16.3
49583;BME280;36329;48.816;44.624;2023-05-19T11:13:19;101166;;;27.6;16.9
49583;BME280;36329;48.816;44.624;2023-05-19T11:16:26;101164;;;27.5;16.6
49583;BME280;36329;48.816;44.624;2023-05-19T11:19:30;101173;;;27.5;16.5
49583;BME280;36329;48.816;44.624;2023-05-19T11:22:32;101164;;;27.3;16.8
49583;BME280;36329;48.816;44.624;2023-05-19T11:25:43;101161;;;27;16.7
49583;BME280;36329;48.816;44.624;2023-05-19T11:28:46;101160;;;26.9;17.1
49583;BME280;36329;48.816;44.624;2023-05-19T11:31:49;101165;;;27.2;17.3
49583;BME280;36329;48.816;44.624;2023-05-19T11:34:53;101166;;;26.9;17.9
49583;BME280;36329;48.816;44.624;2023-05-19T11:37:55;101163;;;26.8;17.6
49583;BME280;36329;48.816;44.624;2023-05-19T11:40:57;101164;;;26.7;17
49583;BME280;36329;48.816;44.624;2023-05-19T11:43:59;101166;;;26.7;16.5
49583;BME280;36329;48.816;44.624;2023-05-19T11:47:02;101165;;;26.8;17.5
49583;BME280;36329;48.816;44.624;2023-05-19T11:50:04;101163;;;26.6;17.7
49583;BME280;36329;48.816;44.624;2023-05-19T11:53:07;101164;;;26.6;17.3
49583;BME280;36329;48.816;44.624;2023-05-19T11:56:11;101164;;;26.8;17.5
49583;BME280;36329;48.816;44.624;2023-05-19T11:59:13;101163;;;27;19
49583;BME280;36329;48.816;44.624;2023-05-19T12:02:17;101166;;;26.9;18.2
49583;BME280;36329;48.816;44.624;2023-05-19T12:05:20;101166;;;26.8;18.4
49583;BME280;36329;48.816;44.624;2023-05-19T12:08:23;101163;;;26.8;18
49583;BME280;36329;48.816;44.624;2023-05-19T12:11:26;101161;;;26.7;17.8
49583;BME280;36329;48.816;44.624;2023-05-19T12:14:29;101159;;;26.6;17.6
49583;BME280;36329;48.816;44.624;2023-05-19T12:17:31;101160;;;26.3;17.6
49583;BME280;36329;48.816;44.624;2023-05-19T12:20:33;101155;;;26.4;18.3
49583;BME280;36329;48.816;44.624;2023-05-19T12:23:36;101152;;;26.4;18
49583;BME280;36329;48.816;44.624;2023-05-19T12:26:39;101152;;;26.4;18.2
49583;BME280;36329;48.816;44.624;2023-05-19T12:29:42;101153;;;26.2;17.7
49583;BME280;36329;48.816;44.624;2023-05-19T12:32:45;101160;;;26.1;18.7
49583;BME280;36329;48.816;44.624;2023-05-19T12:35:47;101161;;;26;18.1
49583;BME280;36329;48.816;44.624;2023-05-19T12:38:53;101156;;;26;17.3
49583;BME280;36329;48.816;44.624;2023-05-19T12:42:00;101152;;;26;17.8
49583;BME280;36329;48.816;44.624;2023-05-19T12:45:03;101152;;;26.1;17.8
49583;BME280;36329;48.816;44.624;2023-05-19T12:48:10;101149;;;26.1;17.7
49583;BME280;36329;48.816;44.624;2023-05-19T12:51:15;101154;;;26.1;18.7
49583;BME280;36329;48.816;44.624;2023-05-19T12:54:18;101148;;;26.1;17.8
49583;BME280;36329;48.816;44.624;2023-05-19T12:57:20;101147;;;26.1;18.7
49583;BME280;36329;48.816;44.624;2023-05-19T13:00:22;101146;;;26.1;18.8
49583;BME280;36329;48.816;44.624;2023-05-19T13:03:24;101142;;;26;19
49583;BME280;36329;48.816;44.624;2023-05-19T13:06:26;101143;;;25.9;19
49583;BME280;36329;48.816;44.624;2023-05-19T13:09:28;101146;;;26.1;19.1
49583;BME280;36329;48.816;44.624;2023-05-19T13:12:30;101147;;;26.1;19.7
49583;BME280;36329;48.816;44.624;2023-05-19T13:15:33;101147;;;25.8;20.3
49583;BME280;36329;48.816;44.624;2023-05-19T13:18:35;101145;;;25.8;20.4
49583;BME280;36329;48.816;44.624;2023-05-19T13:21:37;101143;;;25.8;20.7
49583;BME280;36329;48.816;44.624;2023-05-19T13:24:38;101143;;;25.8;20.7
49583;BME280;36329;48.816;44.624;2023-05-19T13:27:40;101146;;;25.7;20.7
49583;BME280;36329;48.816;44.624;2023-05-19T13:30:43;101143;;;25.6;20.7
49583;BME280;36329;48.816;44.624;2023-05-19T13:33:44;101143;;;25.5;19.6
49583;BME280;36329;48.816;44.624;2023-05-19T13:36:46;101153;;;25.4;20.2
49583;BME280;36329;48.816;44.624;2023-05-19T13:39:48;101151;;;25.5;20.7
49583;BME280;36329;48.816;44.624;2023-05-19T13:42:50;101153;;;25.5;20.5
49583;BME280;36329;48.816;44.624;2023-05-19T13:45:52;101150;;;25.6;20.4
49583;BME280;36329;48.816;44.624;2023-05-19T13:48:55;101149;;;25.6;20.2
49583;BME280;36329;48.816;44.624;2023-05-19T13:51:58;101154;;;25.6;19.9
49583;BME280;36329;48.816;44.624;2023-05-19T13:54:59;101155;;;25.5;19.5
49583;BME280;36329;48.816;44.624;2023-05-19T13:58:01;101159;;;25.5;20.4
49583;BME280;36329;48.816;44.624;2023-05-19T14:01:03;101154;;;25.3;19.9
49583;BME280;36329;48.816;44.624;2023-05-19T14:04:05;101148;;;25.3;20
49583;BME280;36329;48.816;44.624;2023-05-19T14:07:07;101147;;;25.2;20
49583;BME280;36329;48.816;44.624;2023-05-19T14:10:10;101151;;;25.1;20.3
49583;BME280;36329;48.816;44.624;2023-05-19T14:13:11;101153;;;25.2;20.6
49583;BME280;36329;48.816;44.624;2023-05-19T14:16:13;101149;;;25.2;21
49583;BME280;36329;48.816;44.624;2023-05-19T14:19:16;101153;;;25.1;21.2
49583;BME280;36329;48.816;44.624;2023-05-19T14:22:18;101153;;;25.1;21.5
49583;BME280;36329;48.816;44.624;2023-05-19T14:25:20;101152;;;25.1;21.6
49583;BME280;36329;48.816;44.624;2023-05-19T14:28:22;101152;;;25;22
49583;BME280;36329;48.816;44.624;2023-05-19T14:31:23;101149;;;25;21.1
49583;BME280;36329;48.816;44.624;2023-05-19T14:34:25;101146;;;25;21.2
49583;BME280;36329;48.816;44.624;2023-05-19T14:37:27;101148;;;24.9;21
49583;BME280;36329;48.816;44.624;2023-05-19T14:40:29;101150;;;24.9;21.1
49583;BME280;36329;48.816;44.624;2023-05-19T14:43:31;101152;;;24.8;21.5
49583;BME280;36329;48.816;44.624;2023-05-19T14:46:33;101155;;;24.8;21.2
49583;BME280;36329;48.816;44.624;2023-05-19T14:49:35;101152;;;24.8;20.9
49583;BME280;36329;48.816;44.624;2023-05-19T14:52:37;101152;;;24.7;20.8
49583;BME280;36329;48.816;44.624;2023-05-19T14:55:39;101152;;;24.8;21.3
49583;BME280;36329;48.816;44.624;2023-05-19T14:58:41;101150;;;24.8;21.2
49583;BME280;36329;48.816;44.624;2023-05-19T15:01:43;101151;;;24.7;20.9
49583;BME280;36329;48.816;44.624;2023-05-19T15:04:45;101145;;;24.7;20.9
49583;BME280;36329;48.816;44.624;2023-05-19T15:07:47;101150;;;24.6;21.2
49583;BME280;36329;48.816;44.624;2023-05-19T15:10:49;101147;;;24.5;21.1
49583;BME280;36329;48.816;44.624;2023-05-19T15:13:51;101146;;;24.4;21
49583;BME280;36329;48.816;44.624;2023-05-19T15:16:53;101143;;;24.4;21.3
49583;BME280;36329;48.816;44.624;2023-05-19T15:19:55;101142;;;24.4;21.1
49583;BME280;36329;48.816;44.624;2023-05-19T15:22:58;101149;;;24.3;21.7
49583;BME280;36329;48.816;44.624;2023-05-19T15:26:00;101150;;;24.2;21.4
49583;BME280;36329;48.816;44.624;2023-05-19T15:29:02;101151;;;24.2;21.5
49583;BME280;36329;48.816;44.624;2023-05-19T15:32:04;101158;;;24.1;21.3
49583;BME280;36329;48.816;44.624;2023-05-19T15:35:08;101159;;;24.1;21.1
49583;BME280;36329;48.816;44.624;2023-05-19T15:38:09;101165;;;24.1;21.9
49583;BME280;36329;48.816;44.624;2023-05-19T15:41:11;101168;;;24.1;21.4
49583;BME280;36329;48.816;44.624;2023-05-19T15:44:13;101172;;;24;20.8
49583;BME280;36329;48.816;44.624;2023-05-19T15:47:15;101171;;;24;21.4
49583;BME280;36329;48.816;44.624;2023-05-19T15:50:17;101178;;;24;21.5
49583;BME280;36329;48.816;44.624;2023-05-19T15:53:19;101179;;;24;21.6
49583;BME280;36329;48.816;44.624;2023-05-19T15:56:22;101179;;;24;21.1
49583;BME280;36329;48.816;44.624;2023-05-19T15:59:24;101183;;;23.9;20.9
49583;BME280;36329;48.816;44.624;2023-05-19T16:02:25;101196;;;23.9;20.4
49583;BME280;36329;48.816;44.624;2023-05-19T16:05:27;101195;;;23.7;20.5
49583;BME280;36329;48.816;44.624;2023-05-19T16:08:30;101195;;;23.6;21.3
49583;BME280;36329;48.816;44.624;2023-05-19T16:11:32;101198;;;23.6;21.2
49583;BME280;36329;48.816;44.624;2023-05-19T16:14:34;101199;;;23.5;21.5
49583;BME280;36329;48.816;44.624;2023-05-19T16:17:35;101199;;;23.5;22
49583;BME280;36329;48.816;44.624;2023-05-19T16:20:37;101205;;;23.5;22.4
49583;BME280;36329;48.816;44.624;2023-05-19T16:23:39;101208;;;23.4;22.8
49583;BME280;36329;48.816;44.624;2023-05-19T16:26:41;101207;;;23.2;23.3
49583;BME280;36329;48.816;44.624;2023-05-19T16:29:43;101208;;;23.2;23.7
49583;BME280;36329;48.816;44.624;2023-05-19T16:32:45;101209;;;23.1;24.1
49583;BME280;36329;48.816;44.624;2023-05-19T16:35:47;101215;;;23;24.7
49583;BME280;36329;48.816;44.624;2023-05-19T16:38:49;101221;;;23;24.7
49583;BME280;36329;48.816;44.624;2023-05-19T16:41:51;101215;;;23;25
49583;BME280;36329;48.816;44.624;2023-05-19T16:44:53;101223;;;22.9;25.5
49583;BME280;36329;48.816;44.624;2023-05-19T16:47:55;101222;;;22.8;25.8
49583;BME280;36329;48.816;44.624;2023-05-19T16:50:56;101227;;;22.7;26
49583;BME280;36329;48.816;44.624;2023-05-19T16:53:59;101221;;;22.6;26.2
49583;BME280;36329;48.816;44.624;2023-05-19T16:57:02;101228;;;22.6;26.6
49583;BME280;36329;48.816;44.624;2023-05-19T17:00:04;101229;;;22.5;26.8
49583;BME280;36329;48.816;44.624;2023-05-19T17:03:08;101235;;;22.5;27